Aspinwall, Pennsylvania
Current Conditions -  °F | °C
As of 9:00 AM on Sunday 25 Jan 2015 (Local Time) from KAGC Reporting Station
Haze Haze  
Wind Chill: -4°   Ceiling: 1500
Heat Index:   Visibility: 3mi
Dew Point: -2°   Wind: 9mph
Humidity: 82%   Direction: 220°SW
Pressure: 29.75"   Gusts: NA
Location:  40.5049°N, 79.9132°W
Report Text: KAGC 251400Z 22008KT 3SM HZ BKN015 OVC031 01/M02 A2975 RMK AO2 T00061022
Loading
Personal Weather Stations






























Interactive Weather Map New forecast layout! Learn more

10-Day Weather Forecast

Advertisements
Track Severe Weather on mobile